createdAt,value
2017-07-05T00:02:07.091Z,21.50
2017-07-05T00:04:35.543Z,21.50
2017-07-05T00:07:04.171Z,21.60
2017-07-05T00:09:32.419Z,21.60
2017-07-05T00:12:00.650Z,21.70
2017-07-05T00:14:28.892Z,21.70
2017-07-05T00:16:57.172Z,21.70
2017-07-05T00:19:25.392Z,21.70
2017-07-05T00:21:53.712Z,21.70
2017-07-05T00:24:21.992Z,21.50
2017-07-05T00:26:50.539Z,21.10
2017-07-05T00:29:19.200Z,20.70
2017-07-05T00:31:47.544Z,20.70
2017-07-05T00:34:15.821Z,20.60
2017-07-05T00:36:44.089Z,20.50
2017-07-05T00:39:12.361Z,20.60
2017-07-05T00:41:40.592Z,20.50
2017-07-05T00:44:08.827Z,20.40
2017-07-05T00:46:37.439Z,20.30
2017-07-05T00:49:05.781Z,20.30
2017-07-05T00:51:34.220Z,20.20
2017-07-05T00:54:02.538Z,20.30
2017-07-05T00:56:30.783Z,20.30
2017-07-05T00:58:59.025Z,20.30
2017-07-05T01:01:27.461Z,20.20
2017-07-05T01:03:56.003Z,20.10
2017-07-05T01:06:24.735Z,20.10
2017-07-05T01:08:53.111Z,20.10
2017-07-05T01:11:21.402Z,20.00
2017-07-05T01:13:49.679Z,19.90
2017-07-05T01:16:17.945Z,20.10
2017-07-05T01:18:46.225Z,20.10
2017-07-05T01:21:14.503Z,20.10
2017-07-05T01:23:42.760Z,20.10
2017-07-05T01:26:11.160Z,20.20
2017-07-05T01:28:39.665Z,20.30
2017-07-05T01:31:07.978Z,20.20
2017-07-05T01:33:37.071Z,20.10
2017-07-05T01:36:11.118Z,20.00
2017-07-05T01:38:39.598Z,19.90
2017-07-05T01:41:07.974Z,19.80
2017-07-05T01:43:36.550Z,19.70
2017-07-05T01:46:04.882Z,19.70
2017-07-05T01:48:33.768Z,19.60
2017-07-05T01:51:02.133Z,19.60
2017-07-05T01:53:30.460Z,19.60
2017-07-05T01:55:58.847Z,19.50
2017-07-05T01:58:27.223Z,19.50
2017-07-05T02:00:55.834Z,19.60
2017-07-05T02:03:24.073Z,19.80
2017-07-05T02:05:52.334Z,19.90
2017-07-05T02:08:20.960Z,20.20
2017-07-05T02:10:49.240Z,20.20
2017-07-05T02:13:17.491Z,20.40
2017-07-05T02:15:45.720Z,20.50
2017-07-05T02:18:13.955Z,20.60
2017-07-05T02:20:42.236Z,20.70
2017-07-05T02:23:10.467Z,20.60
2017-07-05T02:25:39.098Z,20.20
2017-07-05T02:28:07.467Z,20.20
2017-07-05T02:30:35.749Z,19.90
2017-07-05T02:33:04.362Z,19.70
2017-07-05T02:35:32.763Z,19.60
2017-07-05T02:38:00.998Z,19.70
2017-07-05T02:40:29.269Z,19.70
2017-07-05T02:42:57.657Z,19.80
2017-07-05T02:45:25.893Z,19.90
2017-07-05T02:47:54.131Z,20.00
2017-07-05T02:50:22.593Z,20.10
2017-07-05T02:52:50.823Z,19.90
2017-07-05T02:55:19.056Z,19.80
2017-07-05T02:57:47.333Z,19.70
2017-07-05T03:00:15.679Z,19.70
2017-07-05T03:02:44.009Z,19.50
2017-07-05T03:05:12.739Z,19.40
2017-07-05T03:07:41.018Z,19.40
2017-07-05T03:10:09.532Z,19.40
2017-07-05T03:12:38.399Z,19.60
2017-07-05T03:15:06.901Z,19.70
2017-07-05T03:17:35.137Z,19.60
2017-07-05T03:20:03.415Z,19.70
2017-07-05T03:22:31.643Z,19.70
2017-07-05T03:24:59.896Z,19.70
2017-07-05T03:27:28.499Z,19.50
2017-07-05T03:29:56.721Z,19.40
2017-07-05T03:32:25.016Z,19.20
2017-07-05T03:34:53.268Z,19.00
2017-07-05T03:37:21.554Z,19.10
2017-07-05T03:39:49.792Z,19.40
2017-07-05T03:42:19.160Z,20.10
2017-07-05T03:44:47.384Z,20.10
2017-07-05T03:47:16.434Z,20.40
2017-07-05T03:49:44.723Z,20.50
2017-07-05T03:52:12.954Z,20.50
2017-07-05T03:54:41.187Z,20.10
2017-07-05T03:57:09.913Z,20.00
2017-07-05T03:59:38.295Z,20.00
2017-07-05T04:02:06.533Z,20.20
2017-07-05T04:04:35.255Z,20.70
2017-07-05T04:07:03.534Z,20.60
2017-07-05T04:09:31.805Z,20.70
2017-07-05T04:12:00.236Z,20.70
2017-07-05T04:14:28.561Z,20.80
2017-07-05T04:16:56.797Z,20.60
2017-07-05T04:19:25.450Z,20.20
2017-07-05T04:21:54.119Z,20.20
2017-07-05T04:24:22.404Z,20.30
2017-07-05T04:26:50.764Z,20.40
2017-07-05T04:29:19.044Z,20.50
2017-07-05T04:31:47.320Z,20.60
2017-07-05T04:34:15.589Z,20.80
2017-07-05T04:36:43.873Z,20.90
2017-07-05T04:39:12.109Z,21.10
2017-07-05T04:41:40.796Z,20.90
2017-07-05T04:44:09.421Z,20.40
2017-07-05T04:46:37.689Z,20.40
2017-07-05T04:49:05.977Z,20.20
2017-07-05T04:51:34.377Z,20.10
2017-07-05T04:54:02.611Z,19.90
2017-07-05T04:56:30.909Z,19.80
2017-07-05T04:58:59.172Z,19.70
2017-07-05T05:01:27.417Z,19.60
2017-07-05T05:03:56.137Z,19.50
2017-07-05T05:06:24.384Z,19.50
2017-07-05T05:08:52.788Z,19.50
2017-07-05T05:11:21.119Z,19.60
2017-07-05T05:13:49.375Z,19.70
2017-07-05T05:16:17.857Z,19.80
2017-07-05T05:18:46.141Z,19.90
2017-07-05T05:21:14.716Z,19.70
2017-07-05T05:23:42.967Z,19.60
2017-07-05T05:26:11.468Z,19.60
2017-07-05T05:28:39.737Z,19.60
2017-07-05T05:31:07.953Z,19.50
2017-07-05T05:33:36.734Z,19.40
2017-07-05T05:36:04.976Z,19.40
2017-07-05T05:38:33.208Z,19.20
2017-07-05T05:41:01.526Z,19.10
2017-07-05T05:43:29.932Z,19.10
2017-07-05T05:45:58.164Z,19.30
2017-07-05T05:48:26.436Z,19.40
2017-07-05T05:50:54.948Z,19.40
2017-07-05T05:53:23.250Z,19.40
2017-07-05T05:55:51.919Z,19.30
2017-07-05T05:58:20.156Z,19.30
2017-07-05T06:00:48.416Z,19.40
2017-07-05T06:03:18.450Z,19.20
2017-07-05T06:05:48.554Z,18.90
2017-07-05T06:08:17.930Z,18.90
2017-07-05T06:10:46.244Z,18.80
2017-07-05T06:13:15.231Z,18.70
2017-07-05T06:15:43.641Z,18.60
2017-07-05T06:18:12.693Z,18.70
2017-07-05T06:20:41.445Z,18.70
2017-07-05T06:23:09.804Z,18.50
2017-07-05T06:25:38.082Z,18.50
2017-07-05T06:28:06.674Z,18.40
2017-07-05T06:30:34.917Z,18.40
2017-07-05T06:33:03.285Z,18.30
2017-07-05T06:35:31.706Z,18.20
2017-07-05T06:38:00.383Z,18.20
2017-07-05T06:40:28.768Z,18.20
2017-07-05T06:42:57.033Z,18.20
2017-07-05T06:45:25.332Z,18.20
2017-07-05T06:47:53.689Z,18.30
2017-07-05T06:50:22.862Z,18.40
2017-07-05T06:52:51.116Z,18.60
2017-07-05T06:55:19.370Z,18.80
2017-07-05T06:57:48.003Z,19.30
2017-07-05T07:00:16.266Z,19.30
2017-07-05T07:02:44.536Z,19.40
2017-07-05T07:05:12.775Z,19.40
2017-07-05T07:07:41.432Z,19.30
2017-07-05T07:10:09.697Z,19.30
2017-07-05T07:12:37.957Z,19.30
2017-07-05T07:15:06.325Z,19.20
2017-07-05T07:17:34.590Z,19.00
2017-07-05T07:20:02.837Z,18.90
2017-07-05T07:22:31.308Z,18.60
2017-07-05T07:24:59.636Z,18.50
2017-07-05T07:27:28.951Z,18.20
2017-07-05T07:29:57.200Z,18.00
2017-07-05T07:32:25.490Z,18.00
2017-07-05T07:34:53.886Z,17.80
2017-07-05T07:37:22.135Z,17.60
2017-07-05T07:39:50.421Z,17.40
2017-07-05T07:42:18.670Z,17.40
2017-07-05T07:44:47.300Z,17.50
2017-07-05T07:47:15.598Z,17.50
2017-07-05T07:49:43.851Z,17.50
2017-07-05T07:52:12.092Z,17.40
2017-07-05T07:54:40.375Z,17.30
2017-07-05T07:57:09.516Z,17.20
2017-07-05T07:59:37.747Z,17.10
2017-07-05T08:02:06.169Z,17.10
2017-07-05T08:04:34.399Z,17.30
2017-07-05T08:07:02.640Z,17.40
2017-07-05T08:09:31.016Z,17.80
2017-07-05T08:11:59.262Z,17.80
2017-07-05T08:14:27.509Z,18.00
2017-07-05T08:16:55.779Z,18.00
2017-07-05T08:19:24.021Z,18.10
2017-07-05T08:21:52.256Z,18.00
2017-07-05T08:24:20.521Z,17.90
2017-07-05T08:26:48.794Z,18.00
2017-07-05T08:29:17.086Z,18.20
2017-07-05T08:31:45.481Z,18.30
2017-07-05T08:34:13.713Z,18.40
2017-07-05T08:36:42.012Z,18.50
2017-07-05T08:39:10.493Z,18.80
2017-07-05T08:41:38.804Z,19.30
2017-07-05T08:44:07.477Z,19.90
2017-07-05T08:46:35.726Z,20.40
2017-07-05T08:49:04.033Z,20.80
2017-07-05T08:51:32.277Z,20.90
2017-07-05T08:54:00.560Z,20.80
2017-07-05T08:56:28.858Z,21.00
2017-07-05T08:58:57.093Z,21.50
2017-07-05T09:01:25.393Z,22.00
2017-07-05T09:03:53.623Z,21.90
2017-07-05T09:06:21.877Z,21.90
2017-07-05T09:08:50.177Z,22.30
2017-07-05T09:11:18.428Z,22.80
2017-07-05T09:13:46.685Z,23.20
2017-07-05T09:16:14.985Z,23.20
2017-07-05T09:18:43.234Z,22.90
2017-07-05T09:21:11.478Z,22.80
2017-07-05T09:23:39.756Z,22.30
2017-07-05T09:26:08.051Z,22.00
2017-07-05T09:28:36.293Z,22.20
2017-07-05T09:31:04.600Z,22.50
2017-07-05T09:33:33.583Z,23.00
2017-07-05T09:36:02.889Z,23.40
2017-07-05T09:38:31.403Z,23.80
2017-07-05T09:40:59.744Z,23.80
2017-07-05T09:43:28.948Z,23.70
2017-07-05T09:45:57.226Z,23.80
2017-07-05T09:48:25.476Z,24.50
2017-07-05T09:50:53.720Z,24.90
2017-07-05T09:53:22.017Z,25.20
2017-07-05T09:55:50.257Z,25.20
2017-07-05T09:58:18.504Z,25.40
2017-07-05T10:00:46.802Z,25.50
2017-07-05T10:03:15.534Z,25.90
2017-07-05T10:05:43.727Z,25.90
2017-07-05T10:08:12.138Z,26.10
2017-07-05T10:10:40.416Z,26.00
2017-07-05T10:13:09.104Z,25.70
2017-07-05T10:15:37.560Z,25.50
2017-07-05T10:18:06.044Z,25.60
2017-07-05T10:20:34.309Z,25.60
2017-07-05T10:23:02.725Z,25.90
2017-07-05T10:25:30.978Z,26.50
2017-07-05T10:27:59.309Z,27.20
2017-07-05T10:30:27.621Z,27.70
2017-07-05T10:32:55.910Z,27.90
2017-07-05T10:35:24.520Z,28.00
2017-07-05T10:37:52.801Z,28.00
2017-07-05T10:40:22.167Z,28.40
2017-07-05T10:42:50.428Z,28.40
2017-07-05T10:45:18.727Z,28.80
2017-07-05T10:47:46.960Z,29.10
2017-07-05T10:50:15.433Z,28.90
2017-07-05T10:52:43.864Z,28.80
2017-07-05T10:55:12.148Z,28.80
2017-07-05T10:57:40.408Z,28.70
2017-07-05T11:00:08.803Z,28.10
2017-07-05T11:02:37.078Z,27.90
2017-07-05T11:05:08.021Z,27.80
2017-07-05T11:07:36.282Z,27.70
2017-07-05T11:10:04.569Z,27.50
2017-07-05T11:12:32.836Z,27.20
2017-07-05T11:15:01.223Z,26.80
2017-07-05T11:17:29.501Z,26.60
2017-07-05T11:20:00.451Z,26.50
2017-07-05T11:22:28.991Z,26.70
2017-07-05T11:24:57.251Z,26.70
2017-07-05T11:27:25.507Z,26.30
2017-07-05T11:29:53.801Z,26.60
2017-07-05T11:32:22.036Z,27.10
2017-07-05T11:34:50.688Z,27.90
2017-07-05T11:37:19.088Z,28.00
2017-07-05T11:39:47.325Z,28.50
2017-07-05T11:42:15.604Z,28.80
2017-07-05T11:44:43.914Z,28.90
2017-07-05T11:47:12.153Z,28.60
2017-07-05T11:49:40.385Z,28.00
2017-07-05T11:52:08.656Z,27.90
2017-07-05T11:54:37.040Z,27.90
2017-07-05T11:57:05.280Z,27.90
2017-07-05T11:59:33.890Z,27.50
2017-07-05T12:02:02.146Z,27.60
2017-07-05T12:04:30.373Z,27.80
2017-07-05T12:06:59.015Z,28.10
2017-07-05T12:09:27.246Z,28.10
2017-07-05T12:11:55.640Z,28.20
2017-07-05T12:14:24.663Z,28.10
2017-07-05T12:16:53.012Z,27.70
2017-07-05T12:19:21.318Z,27.50
2017-07-05T12:21:49.909Z,27.40
2017-07-05T12:24:18.142Z,27.30
2017-07-05T12:26:46.452Z,27.10
2017-07-05T12:29:14.696Z,26.80
2017-07-05T12:31:42.952Z,26.90
2017-07-05T12:34:11.202Z,27.00
2017-07-05T12:36:39.512Z,26.80
2017-07-05T12:39:07.822Z,26.50
2017-07-05T12:41:36.137Z,26.40
2017-07-05T12:44:04.897Z,26.70
2017-07-05T12:46:33.116Z,26.70
2017-07-05T12:49:01.437Z,26.80
2017-07-05T12:51:29.697Z,26.70
2017-07-05T12:53:57.930Z,26.80
2017-07-05T12:56:26.761Z,26.50
2017-07-05T12:58:55.069Z,26.50
2017-07-05T13:01:23.333Z,26.40
2017-07-05T13:03:51.846Z,26.50
2017-07-05T13:06:20.510Z,26.80
2017-07-05T13:08:48.753Z,26.80
2017-07-05T13:11:17.028Z,26.80
2017-07-05T13:13:45.412Z,27.00
2017-07-05T13:16:13.644Z,27.00
2017-07-05T13:18:42.237Z,27.10
2017-07-05T13:21:10.879Z,27.80
2017-07-05T13:23:39.323Z,27.80
2017-07-05T13:26:07.643Z,27.70
2017-07-05T13:28:35.922Z,27.50
2017-07-05T13:31:04.160Z,27.40
2017-07-05T13:33:32.388Z,27.50
2017-07-05T13:36:01.145Z,27.30
2017-07-05T13:38:29.541Z,27.30
2017-07-05T13:40:57.774Z,27.60
2017-07-05T13:43:26.054Z,28.10
2017-07-05T13:45:54.750Z,28.40
2017-07-05T13:48:22.982Z,28.60
2017-07-05T13:50:51.800Z,28.50
2017-07-05T13:53:20.044Z,28.50
2017-07-05T13:55:48.798Z,28.40
2017-07-05T13:58:17.058Z,28.50
2017-07-05T14:00:45.301Z,28.10
2017-07-05T14:03:13.554Z,27.60
2017-07-05T14:05:42.249Z,27.00
2017-07-05T14:08:10.489Z,27.00
2017-07-05T14:10:38.833Z,26.80
2017-07-05T14:13:07.945Z,26.60
2017-07-05T14:15:36.231Z,26.80
2017-07-05T14:18:04.506Z,26.50
2017-07-05T14:20:32.783Z,26.40
2017-07-05T14:23:01.569Z,26.40
2017-07-05T14:25:29.920Z,26.40
2017-07-05T14:27:58.481Z,26.30
2017-07-05T14:30:27.097Z,26.40
2017-07-05T14:32:55.343Z,26.40
2017-07-05T14:35:23.677Z,26.10
2017-07-05T14:37:52.454Z,25.90
2017-07-05T14:40:20.715Z,26.00
2017-07-05T14:42:49.113Z,26.00
2017-07-05T14:45:17.347Z,26.20
2017-07-05T14:47:45.652Z,26.10
2017-07-05T14:50:13.945Z,26.00
2017-07-05T14:52:42.169Z,25.80
2017-07-05T14:55:10.408Z,25.60
2017-07-05T14:57:39.332Z,25.80
2017-07-05T15:00:07.602Z,25.80
2017-07-05T15:02:35.901Z,25.90
2017-07-05T15:05:04.234Z,25.60
2017-07-05T15:07:32.515Z,25.60
2017-07-05T15:10:01.251Z,26.00
2017-07-05T15:12:29.548Z,26.00
2017-07-05T15:14:57.805Z,26.00
2017-07-05T15:17:26.106Z,26.00
2017-07-05T15:19:54.397Z,25.80
2017-07-05T15:22:22.639Z,25.90
2017-07-05T15:24:51.213Z,26.10
2017-07-05T15:27:19.534Z,26.40
2017-07-05T15:29:47.906Z,26.60
2017-07-05T15:32:16.149Z,26.70
2017-07-05T15:34:44.442Z,26.90
2017-07-05T15:37:12.669Z,27.10
2017-07-05T15:39:41.085Z,27.10
2017-07-05T15:42:10.106Z,26.70
2017-07-05T15:44:38.341Z,26.70
2017-07-05T15:47:06.689Z,26.20
2017-07-05T15:49:34.989Z,25.90
2017-07-05T15:52:03.263Z,26.00
2017-07-05T15:54:31.545Z,26.00
2017-07-05T15:56:59.825Z,25.80
2017-07-05T15:59:28.094Z,25.60
2017-07-05T16:01:56.383Z,25.60
2017-07-05T16:04:24.759Z,25.50
2017-07-05T16:06:53.278Z,25.30
2017-07-05T16:09:21.928Z,25.60
2017-07-05T16:11:50.229Z,25.60
2017-07-05T16:14:18.462Z,25.60
2017-07-05T16:16:46.781Z,25.90
2017-07-05T16:19:15.881Z,26.10
2017-07-05T16:21:44.561Z,25.80
2017-07-05T16:24:12.806Z,25.80
2017-07-05T16:26:41.104Z,25.60
2017-07-05T16:29:09.344Z,25.50
2017-07-05T16:31:37.932Z,25.60
2017-07-05T16:34:06.213Z,25.70
2017-07-05T16:36:34.445Z,25.70
2017-07-05T16:39:03.111Z,25.30
2017-07-05T16:41:31.373Z,25.30
2017-07-05T16:43:59.816Z,25.10
2017-07-05T16:46:28.058Z,25.10
2017-07-05T16:48:56.356Z,25.00
2017-07-05T16:51:24.688Z,24.80
2017-07-05T16:53:53.135Z,24.70
2017-07-05T16:56:21.434Z,24.70
2017-07-05T16:58:49.685Z,24.90
2017-07-05T17:01:17.916Z,25.00
2017-07-05T17:03:46.205Z,25.00
2017-07-05T17:06:14.456Z,24.90
2017-07-05T17:08:42.873Z,25.00
2017-07-05T17:11:11.133Z,25.00
2017-07-05T17:13:39.373Z,25.10
2017-07-05T17:16:07.605Z,25.10
2017-07-05T17:18:35.973Z,24.90
2017-07-05T17:21:04.689Z,24.30
2017-07-05T17:23:32.940Z,24.30
2017-07-05T17:26:01.357Z,24.30
2017-07-05T17:28:29.624Z,24.30
2017-07-05T17:30:57.882Z,24.40
2017-07-05T17:33:26.165Z,24.40
2017-07-05T17:35:54.477Z,24.50
2017-07-05T17:38:22.705Z,24.40
2017-07-05T17:40:51.005Z,24.60
2017-07-05T17:43:19.236Z,24.60
2017-07-05T17:45:47.965Z,24.30
2017-07-05T17:48:16.659Z,24.30
2017-07-05T17:50:44.981Z,24.10
2017-07-05T17:53:13.748Z,24.10
2017-07-05T17:55:42.061Z,24.10
2017-07-05T17:58:10.317Z,24.00
2017-07-05T18:00:39.165Z,23.90
2017-07-05T18:03:07.444Z,24.20
2017-07-05T18:05:35.705Z,24.50
2017-07-05T18:08:03.941Z,24.60
2017-07-05T18:10:32.630Z,24.70
2017-07-05T18:13:01.267Z,24.30
2017-07-05T18:15:29.504Z,24.30
2017-07-05T18:17:57.869Z,23.90
2017-07-05T18:20:26.702Z,23.90
2017-07-05T18:22:55.008Z,23.90
2017-07-05T18:25:23.261Z,24.00
2017-07-05T18:27:51.761Z,23.80
2017-07-05T18:30:19.996Z,23.70
2017-07-05T18:32:48.279Z,23.50
2017-07-05T18:35:16.531Z,23.40
2017-07-05T18:37:45.235Z,23.20
2017-07-05T18:40:13.537Z,23.20
2017-07-05T18:42:41.773Z,23.40
